Time;durP1;ratioP1;P1;durP2;ratioP2;P2;SDS_P1;SDS_P2;PMS_P1;PMS_P2;Temp;Humidity;BMP_temperature;BMP_pressure;BME280_temperature;BME280_humidity;BME280_pressure;Samples;Min_cycle;Max_cycle;Signal;HPM_P1;HPM_P2
2023/04/13 00:00:25;;;;;;;3.85;1.40;;;6.10;99.90;;;;;;4975562;28;20552;-71
2023/04/13 00:02:52;;;;;;;2.83;1.40;;;6.00;99.90;;;;;;4975039;28;20134;-71
2023/04/13 00:05:19;;;;;;;2.95;1.55;;;6.20;99.90;;;;;;4958480;28;20106;-71
2023/04/13 00:07:45;;;;;;;2.50;1.65;;;6.10;99.90;;;;;;4958443;28;20086;-71
2023/04/13 00:10:10;;;;;;;1.75;1.30;;;6.10;99.90;;;;;;4975379;28;20050;-71
2023/04/13 00:12:37;;;;;;;2.47;1.45;;;6.30;99.90;;;;;;4975775;28;20113;-71
2023/04/13 00:15:04;;;;;;;2.65;1.40;;;6.20;99.90;;;;;;4975305;28;20047;-71
2023/04/13 00:17:32;;;;;;;4.20;1.92;;;6.10;99.90;;;;;;4975166;28;20396;-71
2023/04/13 00:19:58;;;;;;;3.03;1.40;;;6.10;99.90;;;;;;4958297;28;20047;-71
2023/04/13 00:22:28;;;;;;;4.45;1.65;;;6.00;99.90;;;;;;4975149;28;20051;-71
2023/04/13 00:24:54;;;;;;;4.72;1.73;;;6.20;99.90;;;;;;4958825;28;20105;-71
2023/04/13 00:27:26;;;;;;;2.80;1.60;;;6.40;99.90;;;;;;4975142;28;20050;-72
2023/04/13 00:29:55;;;;;;;3.45;1.42;;;6.10;99.90;;;;;;4975081;28;20043;-71
2023/04/13 00:32:22;;;;;;;4.03;1.80;;;6.20;99.90;;;;;;4975397;28;20391;-71
2023/04/13 00:34:48;;;;;;;2.22;1.40;;;6.10;99.90;;;;;;4957732;28;20057;-71
2023/04/13 00:37:14;;;;;;;3.13;1.30;;;6.30;99.90;;;;;;4974611;28;20043;-71
2023/04/13 00:39:42;;;;;;;3.50;1.60;;;6.30;99.90;;;;;;4974856;28;20051;-72
2023/04/13 00:42:08;;;;;;;4.03;1.70;;;6.20;99.90;;;;;;4974858;28;20056;-71
2023/04/13 00:44:34;;;;;;;4.70;1.45;;;6.40;99.90;;;;;;4974821;28;20101;-71
2023/04/13 00:47:03;;;;;;;3.33;1.65;;;6.20;99.90;;;;;;4958538;28;20064;-71
2023/04/13 00:49:32;;;;;;;3.03;1.58;;;6.20;99.90;;;;;;4974675;28;20133;-71
2023/04/13 00:52:00;;;;;;;3.58;1.83;;;6.50;99.90;;;;;;4975530;28;20145;-71
2023/04/13 00:54:28;;;;;;;2.80;1.40;;;6.30;99.90;;;;;;4974755;28;20110;-71
2023/04/13 00:56:54;;;;;;;3.88;1.40;;;6.60;99.90;;;;;;4975244;28;20366;-71
2023/04/13 00:59:19;;;;;;;2.22;1.48;;;6.40;99.90;;;;;;4974625;28;20046;-71
2023/04/13 01:01:49;;;;;;;2.78;1.70;;;6.30;99.90;;;;;;4974377;28;20058;-71
2023/04/13 01:04:18;;;;;;;3.90;1.40;;;6.50;99.90;;;;;;4974198;28;20050;-70
2023/04/13 01:06:52;;;;;;;3.22;1.40;;;6.50;99.90;;;;;;4974566;28;20512;-70
2023/04/13 01:09:27;;;;;;;3.28;1.60;;;6.40;99.90;;;;;;4974653;28;20130;-71
2023/04/13 01:12:17;;;;;;;2.60;1.45;;;6.40;99.90;;;;;;4974555;28;20043;-70
2023/04/13 01:15:00;;;;;;;2.78;1.38;;;6.50;99.90;;;;;;4977328;28;20043;-70
2023/04/13 01:17:31;;;;;;;2.72;1.52;;;6.40;99.90;;;;;;4961715;28;20532;-71
2023/04/13 01:20:11;;;;;;;2.17;1.27;;;6.60;99.90;;;;;;4978248;28;20552;-70
2023/04/13 01:22:45;;;;;;;2.15;1.23;;;6.50;99.90;;;;;;4978687;28;20501;-70
2023/04/13 01:25:29;;;;;;;2.97;1.38;;;6.60;99.90;;;;;;4979230;28;20057;-71
2023/04/13 01:28:08;;;;;;;5.22;1.48;;;6.60;99.90;;;;;;4978375;28;20065;-71
2023/04/13 01:30:36;;;;;;;2.27;1.30;;;6.50;99.90;;;;;;4961434;28;20043;-71
2023/04/13 01:33:03;;;;;;;3.90;1.50;;;6.70;99.90;;;;;;4978354;28;20187;-70
2023/04/13 01:35:30;;;;;;;2.70;1.33;;;6.60;99.90;;;;;;4945121;28;20047;-71
2023/04/13 01:37:56;;;;;;;1.92;1.55;;;6.60;99.90;;;;;;4978160;28;20053;-71
2023/04/13 01:40:24;;;;;;;2.47;1.30;;;6.70;99.90;;;;;;4977809;28;20497;-70
2023/04/13 01:42:51;;;;;;;2.83;1.40;;;6.80;99.90;;;;;;4961104;28;20058;-70
2023/04/13 01:45:16;;;;;;;1.35;1.08;;;6.80;99.90;;;;;;4978502;28;20061;-69
2023/04/13 01:48:20;;;;;;;3.80;1.50;;;6.70;99.90;;;;;;4977913;28;20047;-70
2023/04/13 01:51:02;;;;;;;2.67;1.33;;;6.60;99.90;;;;;;4977919;28;20050;-70
2023/04/13 01:53:33;;;;;;;2.47;1.20;;;6.50;99.90;;;;;;4978710;28;20126;-70
2023/04/13 01:55:59;;;;;;;2.00;1.40;;;6.50;99.90;;;;;;4977885;28;20052;-70
2023/04/13 01:58:27;;;;;;;3.25;1.20;;;6.60;99.90;;;;;;4977841;28;20047;-71
2023/04/13 02:00:54;;;;;;;2.33;1.50;;;6.70;99.90;;;;;;4977788;28;20105;-70
2023/04/13 02:03:21;;;;;;;2.35;1.10;;;6.60;99.90;;;;;;4977300;28;20502;-70
2023/04/13 02:05:49;;;;;;;2.63;1.13;;;6.70;99.90;;;;;;4977619;28;20481;-70
2023/04/13 02:08:17;;;;;;;2.15;1.10;;;6.50;99.90;;;;;;4978177;28;20405;-70
2023/04/13 02:10:43;;;;;;;3.22;1.45;;;6.60;99.90;;;;;;4960475;28;20089;-70
2023/04/13 02:13:09;;;;;;;2.10;1.10;;;6.50;99.90;;;;;;4977519;28;20497;-70
2023/04/13 02:15:37;;;;;;;3.03;1.27;;;6.40;99.90;;;;;;4977518;28;20089;-70
2023/04/13 02:18:04;;;;;;;3.05;1.42;;;6.60;99.90;;;;;;4977601;28;20058;-71
2023/04/13 02:20:39;;;;;;;3.13;0.95;;;6.50;99.90;;;;;;4977375;28;20122;-70
2023/04/13 02:23:07;;;;;;;3.60;1.20;;;6.40;99.90;;;;;;4977411;28;20061;-70
2023/04/13 02:25:33;;;;;;;3.08;1.10;;;6.40;99.90;;;;;;4975959;28;20081;-70
2023/04/13 02:27:59;;;;;;;1.85;1.10;;;6.50;99.90;;;;;;4977264;28;20505;-70
2023/04/13 02:30:25;;;;;;;1.50;0.98;;;6.40;99.90;;;;;;4977728;28;20085;-71
2023/04/13 02:32:51;;;;;;;1.75;0.90;;;6.60;99.90;;;;;;4977134;28;20393;-70
2023/04/13 02:35:17;;;;;;;2.42;1.08;;;6.30;99.90;;;;;;4977177;28;20558;-71
2023/04/13 02:37:42;;;;;;;2.63;1.05;;;6.30;99.90;;;;;;4960356;28;20087;-72
2023/04/13 02:40:09;;;;;;;2.25;1.13;;;6.70;99.90;;;;;;4977002;28;20046;-72
2023/04/13 02:42:36;;;;;;;3.38;1.13;;;6.30;99.90;;;;;;4977804;28;20120;-70
2023/04/13 02:45:03;;;;;;;3.42;1.20;;;6.50;99.90;;;;;;4976972;28;20051;-70
2023/04/13 02:47:29;;;;;;;2.15;1.13;;;6.30;99.90;;;;;;4976827;28;20066;-70
2023/04/13 02:49:54;;;;;;;2.42;1.10;;;6.30;99.90;;;;;;4959881;28;20047;-70
2023/04/13 02:52:20;;;;;;;1.67;1.10;;;6.30;99.90;;;;;;4976861;28;20051;-71
2023/04/13 02:54:46;;;;;;;2.90;1.10;;;6.60;99.90;;;;;;4977333;28;20397;-71
2023/04/13 02:57:12;;;;;;;3.53;1.17;;;6.50;99.90;;;;;;4976755;28;20110;-70
2023/04/13 02:59:39;;;;;;;2.85;1.67;;;6.30;99.90;;;;;;4976973;28;20516;-71
2023/04/13 03:02:05;;;;;;;1.83;1.00;;;6.40;99.90;;;;;;4976662;28;20042;-71
2023/04/13 03:04:31;;;;;;;1.90;1.25;;;6.50;99.90;;;;;;4977771;28;20062;-71
2023/04/13 03:06:57;;;;;;;2.10;1.35;;;6.50;99.90;;;;;;4976595;28;20065;-71
2023/04/13 03:09:24;;;;;;;3.15;1.40;;;6.30;99.90;;;;;;4976651;28;20051;-70
2023/04/13 03:11:50;;;;;;;1.67;1.08;;;6.40;99.90;;;;;;4976414;28;20050;-71
2023/04/13 03:14:22;;;;;;;1.90;1.17;;;6.50;99.90;;;;;;4959351;28;20061;-71
2023/04/13 03:16:48;;;;;;;2.38;1.30;;;6.40;99.90;;;;;;4977248;28;20058;-71
2023/04/13 03:19:15;;;;;;;2.40;1.52;;;6.30;99.90;;;;;;4959186;28;20497;-71
2023/04/13 03:21:43;;;;;;;3.78;1.40;;;6.40;99.90;;;;;;4976615;28;20101;-71
2023/04/13 03:24:10;;;;;;;2.53;1.50;;;6.50;99.90;;;;;;4976505;28;20062;-70
2023/04/13 03:26:36;;;;;;;3.08;1.52;;;6.40;99.90;;;;;;4976184;28;20203;-71
2023/04/13 03:29:02;;;;;;;1.83;1.42;;;6.40;99.90;;;;;;4959395;28;20176;-71
2023/04/13 03:31:29;;;;;;;3.28;1.77;;;6.40;99.90;;;;;;4958949;28;20057;-71
2023/04/13 03:33:57;;;;;;;3.22;1.80;;;6.50;99.90;;;;;;4958738;28;20053;-72
2023/04/13 03:36:23;;;;;;;2.10;1.85;;;6.30;99.90;;;;;;4975277;28;20545;-71
2023/04/13 03:38:48;;;;;;;2.72;1.98;;;6.20;99.90;;;;;;4975987;28;20061;-71
2023/04/13 03:41:14;;;;;;;2.95;2.03;;;6.40;99.90;;;;;;4975989;28;20043;-71
2023/04/13 03:43:40;;;;;;;2.40;1.40;;;6.60;99.90;;;;;;4975923;28;20053;-71
2023/04/13 03:46:06;;;;;;;2.50;1.50;;;6.70;99.90;;;;;;4976064;28;20050;-71
2023/04/13 03:48:33;;;;;;;2.97;1.45;;;6.30;99.90;;;;;;4958649;28;20473;-71
2023/04/13 03:50:59;;;;;;;3.05;1.65;;;6.40;99.90;;;;;;4975715;28;20500;-70
2023/04/13 03:53:24;;;;;;;3.40;1.50;;;6.40;99.90;;;;;;4975755;28;20141;-71
2023/04/13 03:55:51;;;;;;;2.47;1.60;;;6.30;99.90;;;;;;4959381;28;20047;-71
2023/04/13 03:58:17;;;;;;;3.55;1.42;;;6.30;99.90;;;;;;4976364;28;20388;-70
2023/04/13 04:00:43;;;;;;;2.05;0.90;;;6.70;99.90;;;;;;4976154;28;20046;-70
2023/04/13 04:03:09;;;;;;;2.42;0.80;;;6.20;99.90;;;;;;4975321;28;20055;-70
2023/04/13 04:05:38;;;;;;;1.10;0.68;;;6.50;99.90;;;;;;4975519;28;20054;-70
2023/04/13 04:08:04;;;;;;;1.75;0.70;;;6.50;99.90;;;;;;4975741;28;20054;-71
2023/04/13 04:10:29;;;;;;;1.15;0.68;;;6.20;99.90;;;;;;4975478;28;20054;-70
2023/04/13 04:12:56;;;;;;;1.90;0.70;;;6.30;99.90;;;;;;4975285;28;20047;-71
2023/04/13 04:15:22;;;;;;;1.02;0.60;;;6.40;99.90;;;;;;4957972;28;20058;-70
2023/04/13 04:17:48;;;;;;;2.47;0.90;;;6.30;99.90;;;;;;4942677;28;20046;-70
2023/04/13 04:20:15;;;;;;;0.88;0.60;;;6.30;99.90;;;;;;4975533;28;20051;-70
2023/04/13 04:22:43;;;;;;;0.80;0.60;;;6.30;99.90;;;;;;4958128;28;20046;-71
2023/04/13 04:25:10;;;;;;;1.55;0.60;;;6.40;99.90;;;;;;4974861;28;20051;-70
2023/04/13 04:27:37;;;;;;;0.80;0.60;;;6.30;99.90;;;;;;4975137;28;20047;-71
2023/04/13 04:30:06;;;;;;;1.45;0.70;;;6.30;99.90;;;;;;4975053;28;20047;-70
2023/04/13 04:32:35;;;;;;;1.58;0.68;;;6.10;99.90;;;;;;4974958;28;20046;-71
2023/04/13 04:35:02;;;;;;;0.82;0.65;;;6.40;99.90;;;;;;4958801;28;20053;-71
2023/04/13 04:37:36;;;;;;;1.83;0.75;;;6.40;99.90;;;;;;4975021;28;20057;-71
2023/04/13 04:40:08;;;;;;;1.88;0.70;;;6.50;99.90;;;;;;4975084;28;20047;-70
2023/04/13 04:42:37;;;;;;;1.65;0.73;;;6.40;99.90;;;;;;4957911;28;20058;-71
2023/04/13 04:45:07;;;;;;;1.73;0.70;;;6.50;99.90;;;;;;4975403;28;20047;-71
2023/04/13 04:47:40;;;;;;;1.20;0.80;;;6.30;99.90;;;;;;4957534;28;20047;-71
2023/04/13 04:50:11;;;;;;;1.13;0.70;;;6.40;99.90;;;;;;4958387;28;20046;-71
2023/04/13 04:52:37;;;;;;;1.10;0.70;;;6.40;99.90;;;;;;4974770;28;20054;-72
2023/04/13 04:55:05;;;;;;;1.40;0.70;;;6.40;99.90;;;;;;4974720;28;20050;-71
2023/04/13 04:57:32;;;;;;;1.52;0.80;;;6.40;99.90;;;;;;4974459;28;20405;-70
2023/04/13 04:59:58;;;;;;;2.08;0.70;;;6.40;99.90;;;;;;4957483;28;20078;-70
2023/04/13 05:02:24;;;;;;;2.10;0.70;;;6.50;99.90;;;;;;4957834;28;20051;-71
2023/04/13 05:04:52;;;;;;;3.00;0.73;;;6.50;99.90;;;;;;4974653;28;20063;-71
2023/04/13 05:07:18;;;;;;;1.52;0.75;;;6.40;99.90;;;;;;4957694;28;20054;-71
2023/04/13 05:09:44;;;;;;;1.75;0.73;;;5.00;99.90;;;;;;4975008;28;20101;-71
2023/04/13 05:12:10;;;;;;;1.80;0.90;;;6.60;99.90;;;;;;4974397;28;20054;-71
2023/04/13 05:14:36;;;;;;;0.95;0.80;;;6.50;99.90;;;;;;4957503;28;20161;-70
2023/04/13 05:17:02;;;;;;;3.00;0.80;;;6.40;99.90;;;;;;4974499;28;20086;-71
2023/04/13 05:19:28;;;;;;;1.30;0.70;;;6.50;99.90;;;;;;4974439;28;20050;-70
2023/04/13 05:21:54;;;;;;;1.77;0.73;;;6.30;99.90;;;;;;4974066;28;20042;-71
2023/04/13 05:24:20;;;;;;;1.95;1.05;;;6.30;99.90;;;;;;4958126;28;20058;-70
2023/04/13 05:26:46;;;;;;;1.30;0.90;;;6.20;99.90;;;;;;4957645;28;20050;-71
2023/04/13 05:29:11;;;;;;;1.45;0.95;;;6.20;99.90;;;;;;4974352;28;20071;-70
2023/04/13 05:31:37;;;;;;;2.45;1.00;;;6.20;99.90;;;;;;4974321;28;20086;-70
2023/04/13 05:34:03;;;;;;;1.90;1.20;;;6.30;99.90;;;;;;4957515;28;20047;-70
2023/04/13 05:36:30;;;;;;;2.42;1.30;;;6.40;99.90;;;;;;4974815;28;20051;-71
2023/04/13 05:39:00;;;;;;;3.10;1.40;;;6.50;99.90;;;;;;4941608;28;20082;-71
2023/04/13 05:41:26;;;;;;;3.45;1.48;;;6.30;99.90;;;;;;4974771;28;20042;-70
2023/04/13 05:43:52;;;;;;;3.13;1.40;;;6.50;99.90;;;;;;4974232;28;20057;-71
2023/04/13 05:46:17;;;;;;;3.88;1.92;;;6.30;99.90;;;;;;4974435;28;20140;-70
2023/04/13 05:48:43;;;;;;;2.80;1.65;;;6.50;99.90;;;;;;4941930;28;20469;-70
2023/04/13 05:51:12;;;;;;;2.60;1.35;;;6.50;99.90;;;;;;4974794;28;20093;-71
2023/04/13 05:53:38;;;;;;;2.65;1.55;;;6.60;99.90;;;;;;4974136;28;20050;-72
2023/04/13 05:56:06;;;;;;;2.38;1.65;;;6.40;99.90;;;;;;4974350;28;20471;-72
2023/04/13 05:58:33;;;;;;;3.03;1.45;;;6.30;99.90;;;;;;4956821;28;20370;-72
2023/04/13 06:01:00;;;;;;;2.67;1.70;;;6.40;99.90;;;;;;4977021;28;20051;-71
2023/04/13 06:03:28;;;;;;;2.55;1.55;;;6.40;99.90;;;;;;4960476;28;20416;-71
2023/04/13 06:05:54;;;;;;;3.70;1.83;;;6.50;99.90;;;;;;4977594;28;20050;-72
2023/04/13 06:08:21;;;;;;;4.45;1.77;;;6.30;99.90;;;;;;4977586;28;20117;-70
2023/04/13 06:10:47;;;;;;;3.72;1.70;;;6.40;99.90;;;;;;4977544;28;20047;-70
2023/04/13 06:13:13;;;;;;;3.53;1.63;;;6.50;99.90;;;;;;4960710;28;20105;-70
2023/04/13 06:15:39;;;;;;;3.67;1.63;;;6.60;99.90;;;;;;4977472;28;20054;-70
2023/04/13 06:18:05;;;;;;;2.60;1.45;;;6.50;99.90;;;;;;4944276;28;20046;-70
2023/04/13 06:20:32;;;;;;;5.28;1.80;;;6.70;99.90;;;;;;4960108;28;20138;-70
2023/04/13 06:22:58;;;;;;;3.45;1.60;;;6.60;99.90;;;;;;4977292;28;20046;-70
2023/04/13 06:25:24;;;;;;;2.63;1.55;;;6.90;99.90;;;;;;4977844;28;20104;-69
2023/04/13 06:27:50;;;;;;;2.80;1.40;;;6.80;99.90;;;;;;4960775;28;20144;-71
2023/04/13 06:30:16;;;;;;;2.53;1.50;;;6.70;99.90;;;;;;4960884;28;20481;-72
2023/04/13 06:32:42;;;;;;;3.60;1.70;;;6.70;99.90;;;;;;4960043;28;20050;-71
2023/04/13 06:35:08;;;;;;;2.63;1.50;;;6.90;99.90;;;;;;4977416;28;20043;-72
2023/04/13 06:37:34;;;;;;;2.80;1.70;;;6.80;99.90;;;;;;4977118;28;20047;-73
2023/04/13 06:40:14;;;;;;;2.97;1.40;;;6.90;99.90;;;;;;4977076;28;20042;-70
2023/04/13 06:42:41;;;;;;;5.38;1.50;;;6.90;99.90;;;;;;4976955;28;20057;-73
2023/04/13 06:45:11;;;;;;;4.95;1.70;;;7.30;99.90;;;;;;4976906;28;20057;-74
2023/04/13 06:47:39;;;;;;;3.92;1.48;;;7.10;99.90;;;;;;4959716;28;20551;-72
2023/04/13 06:50:07;;;;;;;5.40;1.70;;;7.50;99.90;;;;;;4976694;28;20049;-72
2023/04/13 06:52:33;;;;;;;3.60;1.60;;;7.30;99.90;;;;;;4976916;28;20052;-73
2023/04/13 06:54:59;;;;;;;5.13;1.95;;;7.50;99.90;;;;;;4976763;28;20129;-73
2023/04/13 06:57:25;;;;;;;4.00;1.40;;;7.40;99.90;;;;;;4976371;28;20089;-71
2023/04/13 06:59:51;;;;;;;5.55;1.45;;;7.60;99.90;;;;;;4976839;28;20150;-73
2023/04/13 07:02:16;;;;;;;2.00;1.20;;;7.70;99.90;;;;;;4976413;28;20485;-72
2023/04/13 07:04:42;;;;;;;4.47;1.80;;;7.70;99.90;;;;;;4977055;28;20466;-73
2023/04/13 07:07:08;;;;;;;4.93;1.52;;;7.80;99.90;;;;;;4976770;28;20043;-73
2023/04/13 07:09:34;;;;;;;2.25;1.33;;;7.90;99.90;;;;;;4959459;28;20051;-72
2023/04/13 07:12:03;;;;;;;6.55;2.00;;;7.80;99.90;;;;;;4976030;28;20047;-72
2023/04/13 07:14:39;;;;;;;3.53;1.80;;;7.80;99.90;;;;;;4976127;28;20500;-74
2023/04/13 07:17:05;;;;;;;2.83;1.60;;;7.80;99.90;;;;;;4976319;28;20050;-73
2023/04/13 07:19:32;;;;;;;3.75;2.00;;;7.90;99.90;;;;;;4959177;28;20055;-73
2023/04/13 07:21:59;;;;;;;4.00;2.00;;;7.90;99.90;;;;;;4976179;28;20055;-78
2023/04/13 07:24:26;;;;;;;5.25;2.10;;;7.90;99.90;;;;;;4959075;28;20445;-71
2023/04/13 07:26:53;;;;;;;6.50;1.95;;;7.90;99.90;;;;;;4976927;28;20046;-72
2023/04/13 07:29:19;;;;;;;4.85;2.30;;;7.80;99.90;;;;;;4976065;28;20509;-71
2023/04/13 07:31:46;;;;;;;5.55;2.17;;;8.00;99.90;;;;;;4958627;28;20085;-76
2023/04/13 07:34:12;;;;;;;3.53;2.45;;;7.90;99.90;;;;;;4975766;28;20500;-75
2023/04/13 07:36:37;;;;;;;3.35;1.98;;;7.90;99.90;;;;;;4976179;28;20097;-81
2023/04/13 07:39:03;;;;;;;5.47;2.55;;;7.90;99.90;;;;;;4958843;28;20039;-74
2023/04/13 07:41:29;;;;;;;5.45;2.00;;;7.90;99.90;;;;;;4958788;28;20055;-75
2023/04/13 07:43:55;;;;;;;5.15;2.35;;;8.00;99.90;;;;;;4976060;28;20057;-76
2023/04/13 07:46:25;;;;;;;6.50;2.50;;;8.10;99.90;;;;;;4975963;28;20477;-72
2023/04/13 07:48:52;;;;;;;3.92;1.98;;;8.10;99.90;;;;;;4976305;28;20053;-72
2023/04/13 07:51:19;;;;;;;3.97;1.80;;;8.20;99.90;;;;;;4975595;28;20046;-73
2023/04/13 07:53:44;;;;;;;3.00;1.73;;;8.20;99.90;;;;;;4975632;28;20046;-72
2023/04/13 07:56:10;;;;;;;4.35;1.73;;;8.30;99.90;;;;;;4958517;28;20101;-72
2023/04/13 07:58:36;;;;;;;3.00;1.70;;;8.30;99.90;;;;;;4958532;28;20050;-73
2023/04/13 08:01:02;;;;;;;4.85;1.85;;;8.20;99.90;;;;;;4975838;28;20050;-71
2023/04/13 08:03:34;;;;;;;9.65;4.57;;;8.40;99.90;;;;;;4942323;28;20464;-70
2023/04/13 08:06:00;;;;;;;2.83;1.50;;;8.40;99.90;;;;;;4959092;28;20113;-70
2023/04/13 08:08:26;;;;;;;5.00;1.70;;;8.50;99.90;;;;;;4975489;28;20039;-72
2023/04/13 08:10:54;;;;;;;2.38;1.40;;;8.60;99.90;;;;;;4975470;28;20062;-71
2023/04/13 08:13:20;;;;;;;3.75;1.50;;;8.60;99.90;;;;;;4959171;28;20333;-70
2023/04/13 08:15:46;;;;;;;3.58;1.67;;;8.70;99.90;;;;;;4959165;28;20054;-68
2023/04/13 08:18:12;;;;;;;4.57;1.10;;;8.70;99.90;;;;;;4975346;28;20053;-70
2023/04/13 08:20:37;;;;;;;5.57;1.23;;;8.60;99.90;;;;;;4975329;28;20129;-71
2023/04/13 08:23:03;;;;;;;1.92;1.10;;;8.60;99.90;;;;;;4975746;28;20039;-71
2023/04/13 08:25:29;;;;;;;3.88;1.00;;;8.50;99.90;;;;;;4975239;28;20456;-71
2023/04/13 08:27:55;;;;;;;3.97;1.75;;;8.60;99.90;;;;;;4975255;28;20058;-69
2023/04/13 08:30:21;;;;;;;4.47;1.55;;;8.60;99.90;;;;;;4975066;28;20047;-69
2023/04/13 08:32:47;;;;;;;2.85;1.77;;;8.70;99.90;;;;;;4975291;28;20074;-69
2023/04/13 08:35:14;;;;;;;3.60;1.23;;;8.70;99.90;;;;;;4958098;28;20449;-68
2023/04/13 08:37:41;;;;;;;2.63;1.30;;;8.70;99.90;;;;;;4975247;28;20051;-68
2023/04/13 08:40:10;;;;;;;3.47;1.38;;;8.70;99.90;;;;;;4975445;28;20051;-69
2023/04/13 08:42:37;;;;;;;3.05;1.10;;;8.70;99.90;;;;;;4975302;28;20046;-69
2023/04/13 08:45:03;;;;;;;4.63;1.60;;;8.60;99.90;;;;;;4974901;28;20102;-70
2023/04/13 08:47:29;;;;;;;3.85;1.35;;;8.60;99.90;;;;;;4974884;28;20046;-70
2023/04/13 08:50:00;;;;;;;2.05;1.20;;;8.50;99.90;;;;;;4974481;28;20451;-70
2023/04/13 08:52:27;;;;;;;1.80;1.10;;;8.60;99.90;;;;;;4975315;28;20079;-69
2023/04/13 08:54:57;;;;;;;2.65;1.17;;;8.60;99.90;;;;;;4957613;28;20394;-69
2023/04/13 08:57:23;;;;;;;2.53;0.95;;;8.60;99.90;;;;;;4975574;28;20061;-70
2023/04/13 08:59:51;;;;;;;4.15;1.10;;;8.60;99.90;;;;;;4974735;28;20050;-69
2023/04/13 09:02:25;;;;;;;5.00;1.10;;;8.70;99.90;;;;;;4958094;28;20133;-68
2023/04/13 09:04:58;;;;;;;3.15;1.00;;;8.70;99.90;;;;;;4974240;28;20123;-69
2023/04/13 09:07:27;;;;;;;1.88;0.90;;;8.70;99.90;;;;;;4975151;28;20050;-69
2023/04/13 09:09:58;;;;;;;4.20;1.10;;;8.70;99.90;;;;;;4957482;28;20057;-69
2023/04/13 09:12:29;;;;;;;3.13;1.25;;;8.70;99.90;;;;;;4974499;28;20057;-69
2023/04/13 09:14:56;;;;;;;2.53;1.10;;;8.70;99.90;;;;;;4974545;28;20050;-69
2023/04/13 09:17:27;;;;;;;2.72;1.10;;;8.70;99.90;;;;;;4958284;28;20133;-69
2023/04/13 09:19:56;;;;;;;1.70;0.88;;;8.70;99.90;;;;;;4974547;28;20049;-69
2023/04/13 09:22:24;;;;;;;4.15;0.85;;;8.80;99.90;;;;;;4974991;28;20051;-69
2023/04/13 09:24:50;;;;;;;5.53;2.90;;;8.80;99.90;;;;;;4975026;28;20046;-69
2023/04/13 09:27:20;;;;;;;3.65;1.20;;;8.70;99.90;;;;;;4973732;28;20105;-69
2023/04/13 09:29:51;;;;;;;2.85;1.13;;;8.70;99.90;;;;;;4974614;28;20043;-68
2023/04/13 09:32:24;;;;;;;2.03;1.20;;;8.70;99.90;;;;;;4957122;28;20122;-69
2023/04/13 09:35:03;;;;;;;1.58;1.00;;;8.80;99.90;;;;;;4975588;28;20047;-68
2023/04/13 09:37:31;;;;;;;2.17;0.80;;;8.80;99.90;;;;;;4978216;28;20105;-68
2023/04/13 09:40:17;;;;;;;1.13;0.50;;;8.80;99.90;;;;;;4978655;28;20054;-68
2023/04/13 09:43:00;;;;;;;0.88;0.50;;;8.90;99.90;;;;;;4960809;28;20082;-70
2023/04/13 09:45:40;;;;;;;0.93;0.40;;;8.90;99.90;;;;;;4978214;28;20046;-69
2023/04/13 09:48:17;;;;;;;1.17;0.20;;;8.90;99.90;;;;;;4977957;28;20050;-70
2023/04/13 09:50:43;;;;;;;0.30;0.10;;;9.00;99.90;;;;;;4960908;28;20492;-71
2023/04/13 09:53:09;;;;;;;0.22;0.20;;;9.10;99.90;;;;;;4977909;28;20062;-73
2023/04/13 09:55:37;;;;;;;1.02;0.20;;;9.10;99.90;;;;;;4978441;28;20385;-71
2023/04/13 09:58:13;;;;;;;0.85;0.40;;;9.00;99.90;;;;;;4977903;28;20097;-71
2023/04/13 10:00:41;;;;;;;0.20;0.20;;;9.00;99.90;;;;;;4977754;28;20528;-69
2023/04/13 10:03:12;;;;;;;0.75;0.15;;;9.10;99.90;;;;;;4977437;28;20058;-69
2023/04/13 10:05:39;;;;;;;0.30;0.13;;;9.20;99.90;;;;;;4960715;28;20058;-71
2023/04/13 10:08:05;;;;;;;0.60;0.20;;;9.40;99.90;;;;;;4977702;28;20409;-69
2023/04/13 10:10:32;;;;;;;1.85;0.50;;;9.40;99.90;;;;;;4977549;28;20053;-69
2023/04/13 10:13:03;;;;;;;0.35;0.30;;;9.50;99.90;;;;;;4977433;28;20042;-71
2023/04/13 10:16:06;;;;;;;0.90;0.30;;;9.50;99.90;;;;;;4977698;28;20397;-76
2023/04/13 10:18:46;;;;;;;0.82;0.20;;;9.40;99.90;;;;;;4977183;28;20055;-70
2023/04/13 10:21:13;;;;;;;0.40;0.15;;;9.40;99.90;;;;;;4961157;28;20362;-69
2023/04/13 10:23:40;;;;;;;1.00;0.32;;;9.40;99.90;;;;;;4978148;28;20392;-69
2023/04/13 10:26:06;;;;;;;1.25;0.25;;;9.40;99.90;;;;;;4977344;28;20050;-74
2023/04/13 10:28:46;;;;;;;1.05;0.17;;;9.10;99.90;;;;;;4944153;28;20477;-69
2023/04/13 10:31:12;;;;;;;1.08;0.20;;;8.70;99.90;;;;;;4977778;28;20121;-71
2023/04/13 10:33:50;;;;;;;0.77;0.20;;;8.50;99.90;;;;;;4977152;28;20133;-69
2023/04/13 10:36:17;;;;;;;1.00;0.28;;;8.20;99.90;;;;;;4977943;28;20122;-70
2023/04/13 10:38:43;;;;;;;1.73;0.60;;;8.10;99.90;;;;;;4977916;28;20086;-69
2023/04/13 10:41:09;;;;;;;2.10;0.30;;;8.00;99.90;;;;;;4977307;28;20059;-68
2023/04/13 10:43:35;;;;;;;0.50;0.32;;;8.00;99.90;;;;;;4976961;28;20117;-68
2023/04/13 10:46:08;;;;;;;1.92;0.30;;;7.80;99.90;;;;;;4975618;28;20129;-68
2023/04/13 10:48:35;;;;;;;0.98;0.30;;;7.80;99.90;;;;;;4976912;28;20047;-71
2023/04/13 10:51:01;;;;;;;1.13;0.30;;;7.70;99.90;;;;;;4976916;28;20055;-71
2023/04/13 10:53:29;;;;;;;0.68;0.30;;;7.80;99.90;;;;;;4976927;28;20054;-69
2023/04/13 10:55:56;;;;;;;1.00;0.20;;;7.80;99.90;;;;;;4959688;28;20058;-71
2023/04/13 10:58:22;;;;;;;1.40;0.20;;;7.90;99.90;;;;;;4976799;28;20058;-67
2023/04/13 11:00:50;;;;;;;0.95;0.40;;;7.90;99.90;;;;;;4976819;28;20047;-71
2023/04/13 11:03:17;;;;;;;2.10;0.25;;;8.00;99.90;;;;;;4976499;28;20046;-70
2023/04/13 11:05:54;;;;;;;0.90;0.20;;;7.90;99.90;;;;;;4976702;28;20090;-70
2023/04/13 11:08:20;;;;;;;0.93;0.25;;;7.80;99.90;;;;;;4976832;28;20429;-69
2023/04/13 11:10:53;;;;;;;0.20;0.13;;;7.90;99.90;;;;;;4976418;28;20097;-68
2023/04/13 11:13:20;;;;;;;0.50;0.20;;;8.20;99.90;;;;;;4959121;28;20062;-70
2023/04/13 11:15:48;;;;;;;1.33;0.20;;;7.80;99.90;;;;;;4959249;28;20405;-69
2023/04/13 11:18:25;;;;;;;0.45;0.10;;;7.80;99.90;;;;;;4976163;28;20057;-69
2023/04/13 11:20:51;;;;;;;1.05;0.17;;;7.80;99.90;;;;;;4976802;28;20116;-69
2023/04/13 11:23:22;;;;;;;0.82;0.30;;;7.90;99.90;;;;;;4976139;28;20126;-70
2023/04/13 11:25:56;;;;;;;1.08;0.30;;;7.90;99.90;;;;;;4976242;28;20059;-68
2023/04/13 11:28:24;;;;;;;2.55;0.50;;;8.10;99.90;;;;;;4976029;28;20185;-71
2023/04/13 11:30:54;;;;;;;3.03;0.73;;;8.20;99.90;;;;;;4976022;28;20098;-68
2023/04/13 11:33:28;;;;;;;5.32;0.60;;;8.40;99.90;;;;;;4975599;28;20520;-70
2023/04/13 11:36:01;;;;;;;5.25;0.73;;;8.50;99.90;;;;;;4975972;28;20110;-70
2023/04/13 11:38:28;;;;;;;4.03;0.70;;;8.70;99.90;;;;;;4975394;28;20082;-71
2023/04/13 11:41:05;;;;;;;3.97;0.80;;;8.80;99.90;;;;;;4975112;28;20057;-69
2023/04/13 11:43:32;;;;;;;4.55;0.93;;;9.20;99.90;;;;;;4975537;28;20082;-69
2023/04/13 11:45:58;;;;;;;4.15;1.00;;;9.30;99.90;;;;;;4975703;28;20053;-71
2023/04/13 11:48:25;;;;;;;5.65;1.10;;;9.50;99.90;;;;;;4975683;28;20129;-69
2023/04/13 11:50:51;;;;;;;3.10;1.10;;;9.60;99.90;;;;;;4975844;28;20058;-69
2023/04/13 11:53:17;;;;;;;5.47;1.10;;;9.60;99.90;;;;;;4975614;28;20089;-71
2023/04/13 11:55:44;;;;;;;6.50;1.23;;;9.60;99.90;;;;;;4975352;28;20493;-73
2023/04/13 11:58:15;;;;;;;4.57;0.95;;;9.60;99.90;;;;;;4958211;28;20050;-72
2023/04/13 12:00:41;;;;;;;6.72;1.50;;;9.50;99.90;;;;;;4975746;28;20133;-72
2023/04/13 12:03:14;;;;;;;5.07;1.20;;;9.40;99.90;;;;;;4975419;28;20075;-70
2023/04/13 12:05:41;;;;;;;3.90;1.10;;;9.40;99.90;;;;;;4976393;28;20093;-70
2023/04/13 12:08:07;;;;;;;7.07;1.63;;;9.30;99.90;;;;;;4975460;28;20043;-77
2023/04/13 12:10:35;;;;;;;4.22;1.02;;;9.40;99.90;;;;;;4975902;28;20082;-69
2023/04/13 12:13:10;;;;;;;7.60;1.38;;;9.50;99.90;;;;;;4942142;28;20050;-70
2023/04/13 12:15:38;;;;;;;4.93;0.80;;;9.60;99.90;;;;;;4975500;28;20137;-70
2023/04/13 12:18:05;;;;;;;6.20;0.90;;;9.70;99.90;;;;;;4958291;28;20409;-70
2023/04/13 12:20:38;;;;;;;4.20;0.90;;;9.70;99.90;;;;;;4975693;28;20042;-71
2023/04/13 12:23:19;;;;;;;5.85;1.17;;;9.80;99.90;;;;;;4975232;28;20046;-70
2023/04/13 12:25:56;;;;;;;5.25;0.90;;;9.70;99.90;;;;;;4975766;28;20086;-70
2023/04/13 12:28:33;;;;;;;3.72;1.02;;;9.80;99.90;;;;;;4958163;28;20047;-73
2023/04/13 12:31:07;;;;;;;3.85;0.70;;;9.90;99.90;;;;;;4975357;28;20051;-71
2023/04/13 12:33:33;;;;;;;7.57;0.95;;;9.90;99.90;;;;;;4975615;28;20108;-70
2023/04/13 12:35:59;;;;;;;6.10;0.80;;;9.90;99.90;;;;;;4975560;28;20055;-70
2023/04/13 12:38:29;;;;;;;7.10;0.85;;;10.00;99.90;;;;;;4974968;28;20104;-70
2023/04/13 12:40:59;;;;;;;5.75;1.08;;;10.10;99.90;;;;;;4974978;28;20133;-70
2023/04/13 12:43:26;;;;;;;2.83;0.63;;;10.30;99.90;;;;;;4942493;28;20059;-70
2023/04/13 12:45:52;;;;;;;2.85;0.50;;;10.30;99.90;;;;;;4974934;28;20067;-71
2023/04/13 12:48:18;;;;;;;5.28;0.75;;;10.30;99.90;;;;;;4975592;28;20358;-70
2023/04/13 12:50:44;;;;;;;4.63;1.02;;;10.20;99.90;;;;;;4974701;28;20049;-71
2023/04/13 12:53:13;;;;;;;2.55;0.70;;;10.20;99.90;;;;;;4974692;28;20505;-72
2023/04/13 12:55:39;;;;;;;3.45;0.55;;;10.20;99.90;;;;;;4974754;28;20047;-71
2023/04/13 12:58:05;;;;;;;4.22;0.60;;;10.20;99.90;;;;;;4974823;28;20058;-69
2023/04/13 13:00:31;;;;;;;4.15;0.70;;;10.20;99.90;;;;;;4957312;28;20408;-68
2023/04/13 13:02:57;;;;;;;4.72;0.70;;;10.10;99.90;;;;;;4975482;28;20122;-68